sensor_id;sensor_type;location;lat;lon;timestamp;P1;durP1;ratioP1;P2;durP2;ratioP2
22937;SDS011;11634;42.734;23.298;2024-02-14T00:01:06;8.00;;;7.20;;
22937;SDS011;11634;42.734;23.298;2024-02-14T00:03:36;8.73;;;7.38;;
22937;SDS011;11634;42.734;23.298;2024-02-14T00:06:04;8.90;;;7.03;;
22937;SDS011;11634;42.734;23.298;2024-02-14T00:08:32;8.68;;;7.50;;
22937;SDS011;11634;42.734;23.298;2024-02-14T00:10:57;7.28;;;5.72;;
22937;SDS011;11634;42.734;23.298;2024-02-14T00:13:25;8.35;;;7.43;;
22937;SDS011;11634;42.734;23.298;2024-02-14T00:15:52;7.90;;;7.03;;
22937;SDS011;11634;42.734;23.298;2024-02-14T00:18:18;7.72;;;6.85;;
22937;SDS011;11634;42.734;23.298;2024-02-14T00:20:44;8.65;;;7.72;;
22937;SDS011;11634;42.734;23.298;2024-02-14T00:23:10;8.20;;;7.30;;
22937;SDS011;11634;42.734;23.298;2024-02-14T00:25:36;8.45;;;7.50;;
22937;SDS011;11634;42.734;23.298;2024-02-14T00:28:02;8.00;;;7.15;;
22937;SDS011;11634;42.734;23.298;2024-02-14T00:30:29;10.00;;;7.55;;
22937;SDS011;11634;42.734;23.298;2024-02-14T00:32:55;9.90;;;8.02;;
22937;SDS011;11634;42.734;23.298;2024-02-14T00:35:21;8.10;;;7.28;;
22937;SDS011;11634;42.734;23.298;2024-02-14T00:37:47;8.20;;;7.35;;
22937;SDS011;11634;42.734;23.298;2024-02-14T00:40:12;8.82;;;7.93;;
22937;SDS011;11634;42.734;23.298;2024-02-14T00:42:38;8.00;;;7.20;;
22937;SDS011;11634;42.734;23.298;2024-02-14T00:45:06;9.38;;;7.63;;
22937;SDS011;11634;42.734;23.298;2024-02-14T00:47:41;13.75;;;8.52;;
22937;SDS011;11634;42.734;23.298;2024-02-14T00:50:07;9.68;;;7.30;;
22937;SDS011;11634;42.734;23.298;2024-02-14T00:52:33;8.68;;;7.63;;
22937;SDS011;11634;42.734;23.298;2024-02-14T00:54:59;8.63;;;7.72;;
22937;SDS011;11634;42.734;23.298;2024-02-14T00:57:28;8.32;;;7.28;;
22937;SDS011;11634;42.734;23.298;2024-02-14T00:59:54;8.75;;;7.95;;
22937;SDS011;11634;42.734;23.298;2024-02-14T01:02:21;9.88;;;8.43;;
22937;SDS011;11634;42.734;23.298;2024-02-14T01:04:47;9.13;;;8.10;;
22937;SDS011;11634;42.734;23.298;2024-02-14T01:07:13;9.30;;;7.93;;
22937;SDS011;11634;42.734;23.298;2024-02-14T01:09:40;8.55;;;7.65;;
22937;SDS011;11634;42.734;23.298;2024-02-14T01:12:06;11.27;;;8.15;;
22937;SDS011;11634;42.734;23.298;2024-02-14T01:14:32;9.38;;;7.90;;
22937;SDS011;11634;42.734;23.298;2024-02-14T01:16:58;9.30;;;7.78;;
22937;SDS011;11634;42.734;23.298;2024-02-14T01:19:26;10.60;;;8.75;;
22937;SDS011;11634;42.734;23.298;2024-02-14T01:21:54;9.30;;;8.15;;
22937;SDS011;11634;42.734;23.298;2024-02-14T01:24:21;9.40;;;8.38;;
22937;SDS011;11634;42.734;23.298;2024-02-14T01:26:47;10.25;;;8.68;;
22937;SDS011;11634;42.734;23.298;2024-02-14T01:29:14;10.60;;;9.20;;
22937;SDS011;11634;42.734;23.298;2024-02-14T01:31:42;10.02;;;9.00;;
22937;SDS011;11634;42.734;23.298;2024-02-14T01:34:07;10.23;;;8.63;;
22937;SDS011;11634;42.734;23.298;2024-02-14T01:36:33;11.13;;;9.50;;
22937;SDS011;11634;42.734;23.298;2024-02-14T01:38:59;12.43;;;9.40;;
22937;SDS011;11634;42.734;23.298;2024-02-14T01:41:25;9.93;;;8.43;;
22937;SDS011;11634;42.734;23.298;2024-02-14T01:43:51;11.07;;;9.25;;
22937;SDS011;11634;42.734;23.298;2024-02-14T01:46:16;10.48;;;8.65;;
22937;SDS011;11634;42.734;23.298;2024-02-14T01:48:43;13.23;;;10.00;;
22937;SDS011;11634;42.734;23.298;2024-02-14T01:51:10;14.38;;;10.68;;
22937;SDS011;11634;42.734;23.298;2024-02-14T01:53:39;13.75;;;9.90;;
22937;SDS011;11634;42.734;23.298;2024-02-14T01:56:06;12.32;;;9.73;;
22937;SDS011;11634;42.734;23.298;2024-02-14T01:58:32;11.55;;;9.68;;
22937;SDS011;11634;42.734;23.298;2024-02-14T02:00:59;11.95;;;9.68;;
22937;SDS011;11634;42.734;23.298;2024-02-14T02:03:25;14.63;;;9.32;;
22937;SDS011;11634;42.734;23.298;2024-02-14T02:05:52;12.52;;;9.20;;
22937;SDS011;11634;42.734;23.298;2024-02-14T02:08:19;11.35;;;9.63;;
22937;SDS011;11634;42.734;23.298;2024-02-14T02:10:47;10.70;;;9.60;;
22937;SDS011;11634;42.734;23.298;2024-02-14T02:13:13;11.57;;;9.52;;
22937;SDS011;11634;42.734;23.298;2024-02-14T02:15:41;11.40;;;9.73;;
22937;SDS011;11634;42.734;23.298;2024-02-14T02:18:10;11.00;;;9.40;;
22937;SDS011;11634;42.734;23.298;2024-02-14T02:20:36;10.93;;;8.52;;
22937;SDS011;11634;42.734;23.298;2024-02-14T02:23:03;11.00;;;9.80;;
22937;SDS011;11634;42.734;23.298;2024-02-14T02:25:30;11.18;;;9.95;;
22937;SDS011;11634;42.734;23.298;2024-02-14T02:27:56;10.32;;;9.02;;
22937;SDS011;11634;42.734;23.298;2024-02-14T02:30:23;12.32;;;9.95;;
22937;SDS011;11634;42.734;23.298;2024-02-14T02:32:50;10.70;;;9.55;;
22937;SDS011;11634;42.734;23.298;2024-02-14T02:35:17;12.43;;;9.48;;
22937;SDS011;11634;42.734;23.298;2024-02-14T02:37:46;10.40;;;9.40;;
22937;SDS011;11634;42.734;23.298;2024-02-14T02:40:13;11.77;;;8.80;;
22937;SDS011;11634;42.734;23.298;2024-02-14T02:42:40;11.98;;;10.13;;
22937;SDS011;11634;42.734;23.298;2024-02-14T02:45:06;11.60;;;9.75;;
22937;SDS011;11634;42.734;23.298;2024-02-14T02:47:32;11.32;;;10.13;;
22937;SDS011;11634;42.734;23.298;2024-02-14T02:50:00;12.05;;;10.40;;
22937;SDS011;11634;42.734;23.298;2024-02-14T02:52:27;12.60;;;10.05;;
22937;SDS011;11634;42.734;23.298;2024-02-14T02:54:53;12.38;;;10.70;;
22937;SDS011;11634;42.734;23.298;2024-02-14T02:57:19;13.35;;;10.07;;
22937;SDS011;11634;42.734;23.298;2024-02-14T02:59:45;12.85;;;10.45;;
22937;SDS011;11634;42.734;23.298;2024-02-14T03:02:13;11.88;;;10.18;;
22937;SDS011;11634;42.734;23.298;2024-02-14T03:04:39;12.70;;;11.20;;
22937;SDS011;11634;42.734;23.298;2024-02-14T03:07:05;12.85;;;10.40;;
22937;SDS011;11634;42.734;23.298;2024-02-14T03:09:34;12.32;;;10.10;;
22937;SDS011;11634;42.734;23.298;2024-02-14T03:12:01;13.07;;;10.20;;
22937;SDS011;11634;42.734;23.298;2024-02-14T03:14:30;13.07;;;10.98;;
22937;SDS011;11634;42.734;23.298;2024-02-14T03:17:01;12.85;;;10.73;;
22937;SDS011;11634;42.734;23.298;2024-02-14T03:19:28;12.68;;;10.82;;
22937;SDS011;11634;42.734;23.298;2024-02-14T03:21:54;11.88;;;10.57;;
22937;SDS011;11634;42.734;23.298;2024-02-14T03:24:20;12.75;;;9.85;;
22937;SDS011;11634;42.734;23.298;2024-02-14T03:26:46;10.60;;;9.02;;
22937;SDS011;11634;42.734;23.298;2024-02-14T03:29:12;12.50;;;10.77;;
22937;SDS011;11634;42.734;23.298;2024-02-14T03:31:41;11.77;;;10.27;;
22937;SDS011;11634;42.734;23.298;2024-02-14T03:34:10;13.35;;;10.95;;
22937;SDS011;11634;42.734;23.298;2024-02-14T03:36:38;16.58;;;11.10;;
22937;SDS011;11634;42.734;23.298;2024-02-14T03:39:06;12.15;;;10.82;;
22937;SDS011;11634;42.734;23.298;2024-02-14T03:41:33;12.13;;;10.82;;
22937;SDS011;11634;42.734;23.298;2024-02-14T03:43:58;12.50;;;10.65;;
22937;SDS011;11634;42.734;23.298;2024-02-14T03:46:29;14.55;;;11.40;;
22937;SDS011;11634;42.734;23.298;2024-02-14T03:48:56;11.80;;;9.38;;
22937;SDS011;11634;42.734;23.298;2024-02-14T03:51:25;13.98;;;11.23;;
22937;SDS011;11634;42.734;23.298;2024-02-14T03:53:51;14.82;;;11.10;;
22937;SDS011;11634;42.734;23.298;2024-02-14T03:56:18;13.35;;;11.75;;
22937;SDS011;11634;42.734;23.298;2024-02-14T03:58:44;12.80;;;11.10;;
22937;SDS011;11634;42.734;23.298;2024-02-14T04:01:12;12.63;;;11.32;;
22937;SDS011;11634;42.734;23.298;2024-02-14T04:03:39;12.40;;;11.05;;
22937;SDS011;11634;42.734;23.298;2024-02-14T04:06:07;12.77;;;10.60;;
22937;SDS011;11634;42.734;23.298;2024-02-14T04:08:33;14.85;;;11.73;;
22937;SDS011;11634;42.734;23.298;2024-02-14T04:10:58;10.77;;;9.65;;
22937;SDS011;11634;42.734;23.298;2024-02-14T04:13:24;13.27;;;11.30;;
22937;SDS011;11634;42.734;23.298;2024-02-14T04:15:50;13.20;;;10.60;;
22937;SDS011;11634;42.734;23.298;2024-02-14T04:18:15;13.20;;;11.35;;
22937;SDS011;11634;42.734;23.298;2024-02-14T04:20:43;19.65;;;12.75;;
22937;SDS011;11634;42.734;23.298;2024-02-14T04:23:09;14.18;;;11.43;;
22937;SDS011;11634;42.734;23.298;2024-02-14T04:25:35;14.85;;;13.07;;
22937;SDS011;11634;42.734;23.298;2024-02-14T04:28:04;13.90;;;12.32;;
22937;SDS011;11634;42.734;23.298;2024-02-14T04:30:30;17.67;;;12.90;;
22937;SDS011;11634;42.734;23.298;2024-02-14T04:32:56;12.48;;;11.18;;
22937;SDS011;11634;42.734;23.298;2024-02-14T04:35:21;13.88;;;12.40;;
22937;SDS011;11634;42.734;23.298;2024-02-14T04:37:48;14.52;;;12.90;;
22937;SDS011;11634;42.734;23.298;2024-02-14T04:40:14;14.52;;;12.68;;
22937;SDS011;11634;42.734;23.298;2024-02-14T04:42:41;14.80;;;13.23;;
22937;SDS011;11634;42.734;23.298;2024-02-14T04:45:07;14.50;;;13.00;;
22937;SDS011;11634;42.734;23.298;2024-02-14T04:47:36;13.82;;;12.05;;
22937;SDS011;11634;42.734;23.298;2024-02-14T04:50:02;16.02;;;14.00;;
22937;SDS011;11634;42.734;23.298;2024-02-14T04:52:29;15.00;;;12.77;;
22937;SDS011;11634;42.734;23.298;2024-02-14T04:54:55;16.23;;;12.35;;
22937;SDS011;11634;42.734;23.298;2024-02-14T04:57:22;14.68;;;12.88;;
22937;SDS011;11634;42.734;23.298;2024-02-14T04:59:48;14.88;;;12.32;;
22937;SDS011;11634;42.734;23.298;2024-02-14T05:02:14;15.40;;;12.02;;
22937;SDS011;11634;42.734;23.298;2024-02-14T05:04:40;17.05;;;13.50;;
22937;SDS011;11634;42.734;23.298;2024-02-14T05:07:06;16.48;;;13.60;;
22937;SDS011;11634;42.734;23.298;2024-02-14T05:09:32;15.27;;;13.38;;
22937;SDS011;11634;42.734;23.298;2024-02-14T05:11:58;14.85;;;13.10;;
22937;SDS011;11634;42.734;23.298;2024-02-14T05:14:24;14.32;;;12.85;;
22937;SDS011;11634;42.734;23.298;2024-02-14T05:16:51;16.30;;;12.55;;
22937;SDS011;11634;42.734;23.298;2024-02-14T05:19:17;14.95;;;13.35;;
22937;SDS011;11634;42.734;23.298;2024-02-14T05:21:42;17.83;;;14.13;;
22937;SDS011;11634;42.734;23.298;2024-02-14T05:24:08;15.93;;;13.95;;
22937;SDS011;11634;42.734;23.298;2024-02-14T05:26:34;18.63;;;15.27;;
22937;SDS011;11634;42.734;23.298;2024-02-14T05:29:00;18.50;;;14.70;;
22937;SDS011;11634;42.734;23.298;2024-02-14T05:31:28;18.20;;;15.40;;
22937;SDS011;11634;42.734;23.298;2024-02-14T05:34:08;18.30;;;15.30;;
22937;SDS011;11634;42.734;23.298;2024-02-14T05:36:35;17.65;;;14.43;;
22937;SDS011;11634;42.734;23.298;2024-02-14T05:39:02;15.00;;;13.45;;
22937;SDS011;11634;42.734;23.298;2024-02-14T05:41:27;16.13;;;14.25;;
22937;SDS011;11634;42.734;23.298;2024-02-14T05:43:53;15.07;;;13.55;;
22937;SDS011;11634;42.734;23.298;2024-02-14T05:46:19;17.52;;;15.10;;
22937;SDS011;11634;42.734;23.298;2024-02-14T05:48:46;19.15;;;16.08;;
22937;SDS011;11634;42.734;23.298;2024-02-14T05:51:13;18.30;;;13.93;;
22937;SDS011;11634;42.734;23.298;2024-02-14T05:53:39;18.83;;;14.73;;
22937;SDS011;11634;42.734;23.298;2024-02-14T05:56:05;18.85;;;15.25;;
22937;SDS011;11634;42.734;23.298;2024-02-14T05:58:31;15.88;;;13.95;;
22937;SDS011;11634;42.734;23.298;2024-02-14T06:00:57;16.98;;;14.43;;
22937;SDS011;11634;42.734;23.298;2024-02-14T06:03:22;17.02;;;13.35;;
22937;SDS011;11634;42.734;23.298;2024-02-14T06:05:48;15.27;;;13.65;;
22937;SDS011;11634;42.734;23.298;2024-02-14T06:08:14;15.77;;;13.20;;
22937;SDS011;11634;42.734;23.298;2024-02-14T06:10:40;15.15;;;12.25;;
22937;SDS011;11634;42.734;23.298;2024-02-14T06:13:07;16.73;;;13.95;;
22937;SDS011;11634;42.734;23.298;2024-02-14T06:15:35;17.92;;;13.55;;
22937;SDS011;11634;42.734;23.298;2024-02-14T06:18:02;13.13;;;11.73;;
22937;SDS011;11634;42.734;23.298;2024-02-14T06:20:28;16.42;;;11.70;;
22937;SDS011;11634;42.734;23.298;2024-02-14T06:22:54;15.10;;;12.85;;
22937;SDS011;11634;42.734;23.298;2024-02-14T06:25:20;14.13;;;12.63;;
22937;SDS011;11634;42.734;23.298;2024-02-14T06:27:46;14.30;;;11.57;;
22937;SDS011;11634;42.734;23.298;2024-02-14T06:30:12;16.50;;;13.00;;
22937;SDS011;11634;42.734;23.298;2024-02-14T06:32:41;12.43;;;10.82;;
22937;SDS011;11634;42.734;23.298;2024-02-14T06:35:07;14.40;;;12.35;;
22937;SDS011;11634;42.734;23.298;2024-02-14T06:37:32;15.43;;;12.25;;
22937;SDS011;11634;42.734;23.298;2024-02-14T06:39:59;16.25;;;12.48;;
22937;SDS011;11634;42.734;23.298;2024-02-14T06:42:25;12.82;;;10.85;;
22937;SDS011;11634;42.734;23.298;2024-02-14T06:44:51;14.98;;;9.98;;
22937;SDS011;11634;42.734;23.298;2024-02-14T06:47:17;15.50;;;11.55;;
22937;SDS011;11634;42.734;23.298;2024-02-14T06:49:43;11.57;;;9.50;;
22937;SDS011;11634;42.734;23.298;2024-02-14T06:52:09;11.35;;;9.93;;
22937;SDS011;11634;42.734;23.298;2024-02-14T06:54:36;10.88;;;9.73;;
22937;SDS011;11634;42.734;23.298;2024-02-14T06:57:02;14.23;;;11.60;;
22937;SDS011;11634;42.734;23.298;2024-02-14T06:59:32;14.77;;;11.55;;
22937;SDS011;11634;42.734;23.298;2024-02-14T07:01:59;12.63;;;10.13;;
22937;SDS011;11634;42.734;23.298;2024-02-14T07:04:27;12.82;;;10.80;;
22937;SDS011;11634;42.734;23.298;2024-02-14T07:06:54;12.95;;;10.20;;
22937;SDS011;11634;42.734;23.298;2024-02-14T07:09:20;11.10;;;9.98;;
22937;SDS011;11634;42.734;23.298;2024-02-14T07:11:45;13.73;;;11.07;;
22937;SDS011;11634;42.734;23.298;2024-02-14T07:14:11;10.50;;;9.25;;
22937;SDS011;11634;42.734;23.298;2024-02-14T07:16:37;14.32;;;10.73;;
22937;SDS011;11634;42.734;23.298;2024-02-14T07:19:03;13.98;;;10.45;;
22937;SDS011;11634;42.734;23.298;2024-02-14T07:21:29;15.63;;;11.10;;
22937;SDS011;11634;42.734;23.298;2024-02-14T07:23:54;12.57;;;10.70;;
22937;SDS011;11634;42.734;23.298;2024-02-14T07:26:20;13.82;;;10.05;;
22937;SDS011;11634;42.734;23.298;2024-02-14T07:28:46;12.00;;;9.65;;
22937;SDS011;11634;42.734;23.298;2024-02-14T07:31:11;12.80;;;10.63;;
22937;SDS011;11634;42.734;23.298;2024-02-14T07:33:38;10.48;;;9.27;;
22937;SDS011;11634;42.734;23.298;2024-02-14T07:36:04;14.00;;;10.50;;
22937;SDS011;11634;42.734;23.298;2024-02-14T07:38:30;14.68;;;10.50;;
22937;SDS011;11634;42.734;23.298;2024-02-14T07:40:56;11.95;;;10.38;;
22937;SDS011;11634;42.734;23.298;2024-02-14T07:43:21;13.48;;;9.85;;
22937;SDS011;11634;42.734;23.298;2024-02-14T07:45:47;11.93;;;9.80;;
22937;SDS011;11634;42.734;23.298;2024-02-14T07:48:14;11.00;;;9.13;;
22937;SDS011;11634;42.734;23.298;2024-02-14T07:50:39;12.02;;;9.75;;
22937;SDS011;11634;42.734;23.298;2024-02-14T07:53:05;10.68;;;9.55;;
22937;SDS011;11634;42.734;23.298;2024-02-14T07:55:31;11.45;;;9.68;;
22937;SDS011;11634;42.734;23.298;2024-02-14T07:57:57;11.40;;;10.07;;
22937;SDS011;11634;42.734;23.298;2024-02-14T08:00:24;11.40;;;9.18;;
22937;SDS011;11634;42.734;23.298;2024-02-14T08:02:50;10.27;;;8.63;;
22937;SDS011;11634;42.734;23.298;2024-02-14T08:05:17;11.07;;;8.60;;
22937;SDS011;11634;42.734;23.298;2024-02-14T08:07:46;9.93;;;8.75;;
22937;SDS011;11634;42.734;23.298;2024-02-14T08:10:13;10.82;;;9.30;;
22937;SDS011;11634;42.734;23.298;2024-02-14T08:12:40;11.45;;;9.48;;
22937;SDS011;11634;42.734;23.298;2024-02-14T08:15:06;11.23;;;8.40;;
22937;SDS011;11634;42.734;23.298;2024-02-14T08:17:34;12.02;;;8.98;;
22937;SDS011;11634;42.734;23.298;2024-02-14T08:20:00;17.20;;;8.45;;
22937;SDS011;11634;42.734;23.298;2024-02-14T08:22:29;8.82;;;7.68;;
22937;SDS011;11634;42.734;23.298;2024-02-14T08:24:56;11.85;;;8.88;;
22937;SDS011;11634;42.734;23.298;2024-02-14T08:27:21;11.27;;;8.48;;
22937;SDS011;11634;42.734;23.298;2024-02-14T08:29:47;8.65;;;6.97;;
22937;SDS011;11634;42.734;23.298;2024-02-14T08:32:13;9.63;;;7.57;;
22937;SDS011;11634;42.734;23.298;2024-02-14T08:34:38;9.45;;;7.50;;
22937;SDS011;11634;42.734;23.298;2024-02-14T08:37:04;10.77;;;8.57;;
22937;SDS011;11634;42.734;23.298;2024-02-14T08:39:30;8.27;;;7.07;;
22937;SDS011;11634;42.734;23.298;2024-02-14T08:41:56;9.27;;;8.05;;
22937;SDS011;11634;42.734;23.298;2024-02-14T08:44:21;10.40;;;8.50;;
22937;SDS011;11634;42.734;23.298;2024-02-14T08:46:47;16.20;;;8.52;;
22937;SDS011;11634;42.734;23.298;2024-02-14T08:49:15;7.95;;;7.15;;
22937;SDS011;11634;42.734;23.298;2024-02-14T08:51:43;10.13;;;7.90;;
22937;SDS011;11634;42.734;23.298;2024-02-14T08:54:13;12.95;;;7.90;;
22937;SDS011;11634;42.734;23.298;2024-02-14T08:56:42;13.02;;;7.72;;
22937;SDS011;11634;42.734;23.298;2024-02-14T08:59:08;9.73;;;7.97;;
22937;SDS011;11634;42.734;23.298;2024-02-14T09:01:37;9.55;;;8.55;;
22937;SDS011;11634;42.734;23.298;2024-02-14T09:04:03;12.38;;;8.35;;
22937;SDS011;11634;42.734;23.298;2024-02-14T09:06:29;9.88;;;7.50;;
22937;SDS011;11634;42.734;23.298;2024-02-14T09:08:55;9.88;;;7.63;;
22937;SDS011;11634;42.734;23.298;2024-02-14T09:11:22;8.55;;;6.88;;
22937;SDS011;11634;42.734;23.298;2024-02-14T09:13:48;9.20;;;7.88;;
22937;SDS011;11634;42.734;23.298;2024-02-14T09:16:20;11.07;;;7.70;;
22937;SDS011;11634;42.734;23.298;2024-02-14T09:18:47;10.50;;;8.32;;
22937;SDS011;11634;42.734;23.298;2024-02-14T09:21:17;12.15;;;8.38;;
22937;SDS011;11634;42.734;23.298;2024-02-14T09:23:49;10.27;;;7.30;;
22937;SDS011;11634;42.734;23.298;2024-02-14T09:26:17;10.77;;;7.55;;
22937;SDS011;11634;42.734;23.298;2024-02-14T09:28:43;8.73;;;7.82;;
22937;SDS011;11634;42.734;23.298;2024-02-14T09:31:09;10.32;;;7.80;;
22937;SDS011;11634;42.734;23.298;2024-02-14T09:33:47;9.25;;;7.78;;
22937;SDS011;11634;42.734;23.298;2024-02-14T09:36:13;10.60;;;7.40;;
22937;SDS011;11634;42.734;23.298;2024-02-14T09:38:42;12.88;;;8.15;;
22937;SDS011;11634;42.734;23.298;2024-02-14T09:43:49;8.95;;;7.30;;
22937;SDS011;11634;42.734;23.298;2024-02-14T09:46:15;14.45;;;7.97;;
22937;SDS011;11634;42.734;23.298;2024-02-14T09:48:46;10.48;;;7.90;;
22937;SDS011;11634;42.734;23.298;2024-02-14T09:51:13;10.07;;;8.07;;
22937;SDS011;11634;42.734;23.298;2024-02-14T09:53:39;10.13;;;8.18;;
22937;SDS011;11634;42.734;23.298;2024-02-14T09:56:05;9.85;;;7.75;;
22937;SDS011;11634;42.734;23.298;2024-02-14T09:58:34;9.02;;;7.43;;
22937;SDS011;11634;42.734;23.298;2024-02-14T10:01:01;10.57;;;7.50;;
22937;SDS011;11634;42.734;23.298;2024-02-14T10:03:27;10.38;;;8.82;;
22937;SDS011;11634;42.734;23.298;2024-02-14T10:05:53;7.18;;;6.47;;
22937;SDS011;11634;42.734;23.298;2024-02-14T10:08:21;7.65;;;6.03;;
22937;SDS011;11634;42.734;23.298;2024-02-14T10:10:48;9.35;;;6.55;;
22937;SDS011;11634;42.734;23.298;2024-02-14T10:13:18;8.45;;;7.55;;
22937;SDS011;11634;42.734;23.298;2024-02-14T10:15:43;8.00;;;6.82;;
22937;SDS011;11634;42.734;23.298;2024-02-14T10:18:10;10.15;;;8.00;;
22937;SDS011;11634;42.734;23.298;2024-02-14T10:20:36;8.27;;;7.38;;
22937;SDS011;11634;42.734;23.298;2024-02-14T10:23:10;7.63;;;6.60;;
22937;SDS011;11634;42.734;23.298;2024-02-14T10:25:37;10.13;;;7.45;;
22937;SDS011;11634;42.734;23.298;2024-02-14T10:28:06;11.65;;;6.65;;
22937;SDS011;11634;42.734;23.298;2024-02-14T10:30:35;10.23;;;7.68;;
22937;SDS011;11634;42.734;23.298;2024-02-14T10:33:06;10.65;;;7.68;;
22937;SDS011;11634;42.734;23.298;2024-02-14T10:35:33;7.72;;;7.03;;
22937;SDS011;11634;42.734;23.298;2024-02-14T10:38:02;10.40;;;7.90;;
22937;SDS011;11634;42.734;23.298;2024-02-14T10:40:29;8.27;;;7.07;;
22937;SDS011;11634;42.734;23.298;2024-02-14T10:42:57;9.75;;;7.35;;
22937;SDS011;11634;42.734;23.298;2024-02-14T10:45:24;10.02;;;8.30;;
22937;SDS011;11634;42.734;23.298;2024-02-14T10:47:52;8.75;;;7.20;;
22937;SDS011;11634;42.734;23.298;2024-02-14T10:50:20;9.27;;;7.50;;
22937;SDS011;11634;42.734;23.298;2024-02-14T10:52:48;11.48;;;8.02;;
22937;SDS011;11634;42.734;23.298;2024-02-14T10:55:14;12.18;;;7.78;;
22937;SDS011;11634;42.734;23.298;2024-02-14T10:57:45;8.38;;;7.53;;
22937;SDS011;11634;42.734;23.298;2024-02-14T11:00:12;7.95;;;6.97;;
22937;SDS011;11634;42.734;23.298;2024-02-14T11:02:41;10.50;;;7.97;;
22937;SDS011;11634;42.734;23.298;2024-02-14T11:05:13;9.90;;;7.50;;
22937;SDS011;11634;42.734;23.298;2024-02-14T11:07:46;9.07;;;7.55;;
22937;SDS011;11634;42.734;23.298;2024-02-14T11:10:14;6.53;;;5.75;;
22937;SDS011;11634;42.734;23.298;2024-02-14T11:12:42;10.85;;;7.60;;
22937;SDS011;11634;42.734;23.298;2024-02-14T11:15:10;12.23;;;8.45;;
22937;SDS011;11634;42.734;23.298;2024-02-14T11:17:46;8.77;;;7.82;;
22937;SDS011;11634;42.734;23.298;2024-02-14T11:20:18;9.32;;;8.00;;
22937;SDS011;11634;42.734;23.298;2024-02-14T11:23:21;8.20;;;7.22;;
22937;SDS011;11634;42.734;23.298;2024-02-14T11:25:38;10.10;;;8.10;;
22937;SDS011;11634;42.734;23.298;2024-02-14T11:28:14;9.30;;;7.32;;
22937;SDS011;11634;42.734;23.298;2024-02-14T11:30:53;10.55;;;7.82;;
22937;SDS011;11634;42.734;23.298;2024-02-14T11:33:26;14.23;;;8.15;;
22937;SDS011;11634;42.734;23.298;2024-02-14T11:35:52;8.32;;;7.00;;
22937;SDS011;11634;42.734;23.298;2024-02-14T11:38:21;8.65;;;7.57;;
22937;SDS011;11634;42.734;23.298;2024-02-14T11:40:54;7.80;;;6.85;;
22937;SDS011;11634;42.734;23.298;2024-02-14T11:43:22;7.82;;;6.93;;
22937;SDS011;11634;42.734;23.298;2024-02-14T11:45:48;8.40;;;7.20;;
22937;SDS011;11634;42.734;23.298;2024-02-14T11:48:21;9.20;;;7.05;;
22937;SDS011;11634;42.734;23.298;2024-02-14T11:50:49;7.75;;;6.43;;
22937;SDS011;11634;42.734;23.298;2024-02-14T11:53:17;9.75;;;6.65;;
22937;SDS011;11634;42.734;23.298;2024-02-14T11:55:44;11.45;;;7.97;;
22937;SDS011;11634;42.734;23.298;2024-02-14T11:58:14;8.82;;;7.13;;
22937;SDS011;11634;42.734;23.298;2024-02-14T12:00:42;10.05;;;7.05;;
22937;SDS011;11634;42.734;23.298;2024-02-14T12:03:12;10.55;;;7.93;;
22937;SDS011;11634;42.734;23.298;2024-02-14T12:05:41;10.68;;;7.25;;
22937;SDS011;11634;42.734;23.298;2024-02-14T12:08:09;9.20;;;6.65;;
22937;SDS011;11634;42.734;23.298;2024-02-14T12:10:35;10.23;;;8.18;;
22937;SDS011;11634;42.734;23.298;2024-02-14T12:13:06;12.30;;;8.27;;
22937;SDS011;11634;42.734;23.298;2024-02-14T12:15:36;12.45;;;7.82;;
22937;SDS011;11634;42.734;23.298;2024-02-14T12:18:03;12.98;;;8.65;;
22937;SDS011;11634;42.734;23.298;2024-02-14T12:20:29;9.48;;;7.50;;
22937;SDS011;11634;42.734;23.298;2024-02-14T12:22:55;11.00;;;8.30;;
22937;SDS011;11634;42.734;23.298;2024-02-14T12:25:22;14.57;;;6.50;;
22937;SDS011;11634;42.734;23.298;2024-02-14T12:27:51;14.25;;;8.80;;
22937;SDS011;11634;42.734;23.298;2024-02-14T12:30:18;11.85;;;8.82;;
22937;SDS011;11634;42.734;23.298;2024-02-14T12:32:57;11.27;;;8.57;;
22937;SDS011;11634;42.734;23.298;2024-02-14T12:35:34;10.13;;;8.00;;
22937;SDS011;11634;42.734;23.298;2024-02-14T12:38:05;9.55;;;7.13;;
22937;SDS011;11634;42.734;23.298;2024-02-14T12:40:39;9.93;;;5.72;;
22937;SDS011;11634;42.734;23.298;2024-02-14T12:43:10;8.60;;;6.43;;
22937;SDS011;11634;42.734;23.298;2024-02-14T12:45:37;9.90;;;7.38;;
22937;SDS011;11634;42.734;23.298;2024-02-14T12:48:03;8.23;;;6.82;;
22937;SDS011;11634;42.734;23.298;2024-02-14T12:50:30;9.70;;;6.88;;
22937;SDS011;11634;42.734;23.298;2024-02-14T12:52:58;10.02;;;6.80;;
22937;SDS011;11634;42.734;23.298;2024-02-14T12:55:25;11.45;;;7.00;;
22937;SDS011;11634;42.734;23.298;2024-02-14T12:57:56;10.88;;;7.38;;
22937;SDS011;11634;42.734;23.298;2024-02-14T13:00:23;8.07;;;6.18;;
22937;SDS011;11634;42.734;23.298;2024-02-14T13:02:49;10.82;;;6.57;;
22937;SDS011;11634;42.734;23.298;2024-02-14T13:05:16;12.20;;;6.38;;
22937;SDS011;11634;42.734;23.298;2024-02-14T13:07:43;8.77;;;6.18;;
22937;SDS011;11634;42.734;23.298;2024-02-14T13:10:09;10.85;;;6.03;;
22937;SDS011;11634;42.734;23.298;2024-02-14T13:12:38;10.50;;;6.57;;
22937;SDS011;11634;42.734;23.298;2024-02-14T13:15:05;11.65;;;6.70;;
22937;SDS011;11634;42.734;23.298;2024-02-14T13:17:32;8.32;;;6.43;;
22937;SDS011;11634;42.734;23.298;2024-02-14T13:19:58;7.78;;;5.93;;
22937;SDS011;11634;42.734;23.298;2024-02-14T13:22:25;12.25;;;6.25;;
22937;SDS011;11634;42.734;23.298;2024-02-14T13:24:51;13.65;;;8.00;;
22937;SDS011;11634;42.734;23.298;2024-02-14T13:27:17;12.13;;;7.53;;
22937;SDS011;11634;42.734;23.298;2024-02-14T13:29:45;12.60;;;7.28;;
22937;SDS011;11634;42.734;23.298;2024-02-14T13:32:11;10.43;;;6.75;;
22937;SDS011;11634;42.734;23.298;2024-02-14T13:34:37;12.95;;;7.82;;
22937;SDS011;11634;42.734;23.298;2024-02-14T13:37:03;10.00;;;6.80;;
22937;SDS011;11634;42.734;23.298;2024-02-14T13:39:29;7.53;;;6.75;;
22937;SDS011;11634;42.734;23.298;2024-02-14T13:41:55;8.13;;;6.30;;
22937;SDS011;11634;42.734;23.298;2024-02-14T13:44:23;9.77;;;6.85;;
22937;SDS011;11634;42.734;23.298;2024-02-14T13:46:52;12.02;;;6.72;;
22937;SDS011;11634;42.734;23.298;2024-02-14T13:49:20;10.38;;;7.18;;
22937;SDS011;11634;42.734;23.298;2024-02-14T13:51:49;14.70;;;8.15;;
22937;SDS011;11634;42.734;23.298;2024-02-14T13:54:20;11.32;;;7.88;;
22937;SDS011;11634;42.734;23.298;2024-02-14T13:56:47;13.85;;;8.32;;
22937;SDS011;11634;42.734;23.298;2024-02-14T13:59:14;8.88;;;6.38;;
22937;SDS011;11634;42.734;23.298;2024-02-14T14:01:40;9.40;;;7.15;;
22937;SDS011;11634;42.734;23.298;2024-02-14T14:04:06;11.90;;;9.27;;
22937;SDS011;11634;42.734;23.298;2024-02-14T14:06:32;10.07;;;7.28;;
22937;SDS011;11634;42.734;23.298;2024-02-14T14:08:59;14.55;;;9.88;;
22937;SDS011;11634;42.734;23.298;2024-02-14T14:11:25;15.10;;;10.30;;
22937;SDS011;11634;42.734;23.298;2024-02-14T14:13:51;9.73;;;7.47;;
22937;SDS011;11634;42.734;23.298;2024-02-14T14:16:18;9.05;;;7.80;;
22937;SDS011;11634;42.734;23.298;2024-02-14T14:18:46;12.00;;;7.70;;
22937;SDS011;11634;42.734;23.298;2024-02-14T14:21:13;10.57;;;7.03;;
22937;SDS011;11634;42.734;23.298;2024-02-14T14:23:41;14.52;;;8.82;;